createdAt,value
2023-03-01T00:01:17.460Z,99509.22
2023-03-01T00:03:47.172Z,99518.03
2023-03-01T00:06:15.054Z,99515.13
2023-03-01T00:08:43.020Z,99515.13
2023-03-01T00:11:14.914Z,99518.66
2023-03-01T00:13:44.134Z,99507.97
2023-03-01T00:16:14.202Z,99506.59
2023-03-01T00:18:42.070Z,99507.28
2023-03-01T00:21:11.350Z,99507.97
2023-03-01T00:23:40.094Z,99511.41
2023-03-01T00:26:10.029Z,99509.66
2023-03-01T00:28:39.416Z,99510.63
2023-03-01T00:31:09.118Z,99508.53
2023-03-01T00:33:37.053Z,99504.81
2023-03-01T00:36:05.955Z,99503.31
2023-03-01T00:38:38.951Z,99512.19
2023-03-01T00:41:10.638Z,99515.19
2023-03-01T00:43:38.615Z,99515.88
2023-03-01T00:46:08.236Z,99513.44
2023-03-01T00:48:36.789Z,99510.31
2023-03-01T00:51:08.010Z,99500.66
2023-03-01T00:53:36.092Z,99500.25
2023-03-01T00:56:06.893Z,99512.69
2023-03-01T00:58:35.162Z,99511.47
2023-03-01T01:01:08.929Z,99507.13
2023-03-01T01:03:36.709Z,99510.25
2023-03-01T01:06:10.274Z,99513.34
2023-03-01T01:08:38.049Z,99510.97
2023-03-01T01:11:07.316Z,99504.72
2023-03-01T01:13:37.621Z,99509.44
2023-03-01T01:16:06.192Z,99511.69
2023-03-01T01:18:34.014Z,99512.34
2023-03-01T01:21:06.408Z,99508.34
2023-03-01T01:23:34.454Z,99496.66
2023-03-01T01:26:07.931Z,99495.06
2023-03-01T01:28:37.285Z,99500.38
2023-03-01T01:31:05.522Z,99504.00
2023-03-01T01:33:33.742Z,99487.38
2023-03-01T01:36:01.717Z,99477.66
2023-03-01T01:38:29.683Z,99475.22
2023-03-01T01:41:00.080Z,99469.78
2023-03-01T01:43:32.112Z,99483.13
2023-03-01T01:46:03.551Z,99476.19
2023-03-01T01:48:42.198Z,99479.81
2023-03-01T01:51:14.966Z,99474.16
2023-03-01T01:53:44.514Z,99467.22
2023-03-01T01:56:16.349Z,99463.31
2023-03-01T01:58:46.687Z,99466.16
2023-03-01T02:01:14.396Z,99469.38
2023-03-01T02:03:46.103Z,99465.84
2023-03-01T02:06:19.141Z,99455.97
2023-03-01T02:08:49.348Z,99462.47
2023-03-01T02:11:17.454Z,99450.09
2023-03-01T02:13:49.386Z,99451.94
2023-03-01T02:16:19.392Z,99450.03
2023-03-01T02:18:49.966Z,99445.44
2023-03-01T02:21:35.134Z,99435.25
2023-03-01T02:24:17.762Z,99438.97
2023-03-01T02:26:52.068Z,99434.84
2023-03-01T02:29:21.966Z,99429.13
2023-03-01T02:31:49.332Z,99423.41
2023-03-01T02:34:19.661Z,99416.38
2023-03-01T02:36:50.722Z,99416.22
2023-03-01T02:39:22.865Z,99426.44
2023-03-01T02:41:54.670Z,99417.50
2023-03-01T02:44:24.868Z,99418.19
2023-03-01T02:46:55.108Z,99408.53
2023-03-01T02:49:28.928Z,99408.81
2023-03-01T02:52:25.974Z,99403.91
2023-03-01T02:54:59.991Z,99404.41
2023-03-01T02:57:30.131Z,99388.94
2023-03-01T03:00:07.857Z,99396.75
2023-03-01T03:02:38.085Z,99391.47
2023-03-01T03:05:21.884Z,99396.16
2023-03-01T03:07:53.685Z,99391.41
2023-03-01T03:10:24.450Z,99394.44
2023-03-01T03:12:53.802Z,99397.81
2023-03-01T03:15:24.572Z,99386.59
2023-03-01T03:17:54.056Z,99383.63
2023-03-01T03:20:25.352Z,99377.56
2023-03-01T03:22:55.685Z,99375.44
2023-03-01T03:25:24.130Z,99373.91
2023-03-01T03:27:57.423Z,99375.75
2023-03-01T03:30:28.402Z,99383.75
2023-03-01T03:32:59.823Z,99379.09
2023-03-01T03:35:33.456Z,99383.13
2023-03-01T03:38:07.655Z,99379.16
2023-03-01T03:40:37.300Z,99376.44
2023-03-01T03:43:06.889Z,99375.69
2023-03-01T03:45:36.688Z,99381.28
2023-03-01T03:48:07.096Z,99378.03
2023-03-01T03:50:35.291Z,99379.34
2023-03-01T03:53:03.798Z,99382.78
2023-03-01T03:55:31.750Z,99371.44
2023-03-01T03:58:03.272Z,99367.16
2023-03-01T04:00:31.231Z,99364.97
2023-03-01T04:03:00.394Z,99367.16
2023-03-01T04:05:29.314Z,99356.31
2023-03-01T04:08:08.108Z,99350.78
2023-03-01T04:10:38.555Z,99352.44
2023-03-01T04:13:07.015Z,99351.69
2023-03-01T04:15:35.192Z,99354.75
2023-03-01T04:18:07.656Z,99356.56
2023-03-01T04:20:37.647Z,99347.69
2023-03-01T04:23:14.140Z,99352.78
2023-03-01T04:25:43.462Z,99349.50
2023-03-01T04:28:11.874Z,99351.19
2023-03-01T04:30:42.414Z,99340.44
2023-03-01T04:33:13.115Z,99344.16
2023-03-01T04:35:42.011Z,99342.75
2023-03-01T04:38:10.665Z,99343.28
2023-03-01T04:40:38.841Z,99338.97
2023-03-01T04:43:06.838Z,99345.66
2023-03-01T04:45:36.471Z,99350.41
2023-03-01T04:48:05.378Z,99347.66
2023-03-01T04:50:35.056Z,99345.72
2023-03-01T04:53:02.953Z,99345.72
2023-03-01T04:55:33.337Z,99350.06
2023-03-01T04:58:01.068Z,99349.81
2023-03-01T05:00:28.955Z,99349.63
2023-03-01T05:03:01.207Z,99353.22
2023-03-01T05:05:31.274Z,99345.06
2023-03-01T05:08:02.705Z,99344.44
2023-03-01T05:10:32.772Z,99349.56
2023-03-01T05:13:01.740Z,99346.72
2023-03-01T05:15:31.697Z,99348.28
2023-03-01T05:18:01.450Z,99344.75
2023-03-01T05:20:29.721Z,99338.63
2023-03-01T05:22:59.584Z,99342.94
2023-03-01T05:25:33.892Z,99343.75
2023-03-01T05:28:05.206Z,99347.88
2023-03-01T05:30:33.748Z,99343.25
2023-03-01T05:33:02.394Z,99344.09
2023-03-01T05:35:33.611Z,99343.78
2023-03-01T05:38:01.602Z,99341.44
2023-03-01T05:40:30.737Z,99354.50
2023-03-01T05:42:58.970Z,99349.97
2023-03-01T05:45:30.109Z,99333.34
2023-03-01T05:47:57.871Z,99347.59
2023-03-01T05:50:28.201Z,99341.31
2023-03-01T05:53:00.225Z,99342.38
2023-03-01T05:55:29.261Z,99339.69
2023-03-01T05:58:00.595Z,99346.09
2023-03-01T06:00:29.538Z,99334.38
2023-03-01T06:02:58.609Z,99332.88
2023-03-01T06:05:26.962Z,99334.56
2023-03-01T06:08:00.275Z,99325.00
2023-03-01T06:10:28.557Z,99332.63
2023-03-01T06:12:56.336Z,99332.22
2023-03-01T06:15:26.939Z,99330.84
2023-03-01T06:17:59.676Z,99336.81
2023-03-01T06:20:29.495Z,99336.44
2023-03-01T06:22:58.165Z,99330.88
2023-03-01T06:25:27.769Z,99332.84
2023-03-01T06:27:55.524Z,99335.50
2023-03-01T06:30:26.714Z,99327.00
2023-03-01T06:33:01.646Z,99332.16
2023-03-01T06:35:31.529Z,99325.44
2023-03-01T06:38:03.511Z,99326.81
2023-03-01T06:40:32.280Z,99325.50
2023-03-01T06:43:00.397Z,99328.75
2023-03-01T06:45:29.580Z,99331.06
2023-03-01T06:48:04.842Z,99341.34
2023-03-01T06:50:32.944Z,99333.56
2023-03-01T06:53:00.855Z,99345.72
2023-03-01T06:55:31.255Z,99338.13
2023-03-01T06:57:59.865Z,99339.09
2023-03-01T07:00:29.523Z,99338.06
2023-03-01T07:03:00.962Z,99338.19
2023-03-01T07:05:28.709Z,99345.19
2023-03-01T07:07:57.294Z,99326.00
2023-03-01T07:10:25.262Z,99327.34
2023-03-01T07:12:56.744Z,99325.91
2023-03-01T07:15:24.599Z,99321.94
2023-03-01T07:17:53.814Z,99327.06
2023-03-01T07:20:25.447Z,99320.91
2023-03-01T07:22:53.336Z,99327.97
2023-03-01T07:25:21.208Z,99321.34
2023-03-01T07:27:51.874Z,99314.63
2023-03-01T07:30:20.251Z,99307.38
2023-03-01T07:32:48.421Z,99315.31
2023-03-01T07:35:17.821Z,99310.34
2023-03-01T07:37:45.859Z,99302.66
2023-03-01T07:40:14.653Z,99300.38
2023-03-01T07:42:42.517Z,99293.50
2023-03-01T07:45:14.399Z,99297.06
2023-03-01T07:47:42.172Z,99299.34
2023-03-01T07:50:12.771Z,99296.81
2023-03-01T07:52:41.880Z,99299.25
2023-03-01T07:55:10.415Z,99294.94
2023-03-01T07:57:38.287Z,99292.88
2023-03-01T08:00:07.691Z,99287.97
2023-03-01T08:02:41.409Z,99281.13
2023-03-01T08:05:09.881Z,99282.69
2023-03-01T08:07:37.762Z,99276.00
2023-03-01T08:10:07.876Z,99275.94
2023-03-01T08:12:35.645Z,99276.75
2023-03-01T08:15:03.391Z,99279.53
2023-03-01T08:17:31.152Z,99288.09
2023-03-01T08:19:58.918Z,99291.34
2023-03-01T08:22:26.779Z,99285.31
2023-03-01T08:24:56.696Z,99278.34
2023-03-01T08:27:27.973Z,99280.28
2023-03-01T08:29:55.782Z,99264.63
2023-03-01T08:32:23.632Z,99271.69
2023-03-01T08:34:51.560Z,99275.06
2023-03-01T08:37:19.325Z,99266.34
2023-03-01T08:39:47.130Z,99264.91
2023-03-01T08:42:14.995Z,99273.75
2023-03-01T08:44:45.998Z,99273.63
2023-03-01T08:47:14.707Z,99265.22
2023-03-01T08:49:42.434Z,99260.22
2023-03-01T08:52:10.303Z,99274.00
2023-03-01T08:54:38.497Z,99252.25
2023-03-01T08:57:06.232Z,99252.53
2023-03-01T08:59:38.176Z,99245.00
2023-03-01T09:02:08.533Z,99250.50
2023-03-01T09:04:36.382Z,99245.50
2023-03-01T09:07:04.262Z,99247.56
2023-03-01T09:09:32.374Z,99242.09
2023-03-01T09:12:00.358Z,99241.31
2023-03-01T09:14:28.341Z,99242.97
2023-03-01T09:16:57.088Z,99239.19
2023-03-01T09:19:27.495Z,99237.41
2023-03-01T09:21:56.916Z,99221.88
2023-03-01T09:24:26.433Z,99226.88
2023-03-01T09:26:58.353Z,99212.13
2023-03-01T09:29:26.894Z,99210.69
2023-03-01T09:31:57.122Z,99214.78
2023-03-01T09:34:26.273Z,99215.50
2023-03-01T09:36:54.163Z,99211.41
2023-03-01T09:39:24.572Z,99206.22
2023-03-01T09:42:00.757Z,99197.50
2023-03-01T09:44:36.271Z,99202.34
2023-03-01T09:47:04.864Z,99199.03
2023-03-01T09:49:37.164Z,99200.53
2023-03-01T09:52:15.344Z,99207.06
2023-03-01T09:54:43.207Z,99196.53
2023-03-01T09:57:21.151Z,99189.44
2023-03-01T10:00:22.700Z,99185.41
2023-03-01T10:03:00.498Z,99182.94
2023-03-01T10:05:43.457Z,99172.06
2023-03-01T10:08:30.482Z,99176.28
2023-03-01T10:10:59.452Z,99172.91
2023-03-01T10:13:33.379Z,99165.09
2023-03-01T10:16:06.122Z,99161.75
2023-03-01T10:18:37.798Z,99154.69
2023-03-01T10:21:16.557Z,99156.75
2023-03-01T10:23:46.698Z,99166.00
2023-03-01T10:26:27.033Z,99149.72
2023-03-01T10:29:03.720Z,99154.00
2023-03-01T10:31:40.314Z,99134.78
2023-03-01T10:34:14.497Z,99139.97
2023-03-01T10:36:46.160Z,99134.13
2023-03-01T10:39:17.668Z,99122.28
2023-03-01T10:42:00.749Z,99121.88
2023-03-01T10:44:41.061Z,99117.91
2023-03-01T10:47:15.850Z,99127.16
2023-03-01T10:49:54.407Z,99117.59
2023-03-01T10:52:25.935Z,99120.91
2023-03-01T10:54:56.712Z,99115.88
2023-03-01T10:57:34.167Z,99118.09
2023-03-01T11:00:20.151Z,99112.72
2023-03-01T11:02:51.312Z,99107.66
2023-03-01T11:05:25.836Z,99092.09
2023-03-01T11:07:57.544Z,99091.59
2023-03-01T11:10:27.359Z,99085.47
2023-03-01T11:13:09.110Z,99088.75
2023-03-01T11:15:37.933Z,99080.09
2023-03-01T11:18:22.634Z,99076.03
2023-03-01T11:20:55.777Z,99072.44
2023-03-01T11:23:26.442Z,99073.75
2023-03-01T11:25:58.514Z,99068.56
2023-03-01T11:28:29.583Z,99063.50
2023-03-01T11:31:08.554Z,99059.66
2023-03-01T11:33:43.033Z,99051.03
2023-03-01T11:36:18.663Z,99043.25
2023-03-01T11:38:49.001Z,99044.44
2023-03-01T11:41:22.833Z,99031.91
2023-03-01T11:43:55.805Z,99037.66
2023-03-01T11:46:50.534Z,99033.06
2023-03-01T11:49:51.607Z,99029.13
2023-03-01T11:52:28.033Z,99026.91
2023-03-01T11:55:18.369Z,99019.03
2023-03-01T11:58:10.356Z,99011.63
2023-03-01T12:01:02.662Z,99007.03
2023-03-01T12:03:50.129Z,99001.50
2023-03-01T12:06:30.951Z,98990.63
2023-03-01T12:09:11.589Z,98990.72
2023-03-01T12:11:52.286Z,98992.13
2023-03-01T12:14:52.538Z,98984.50
2023-03-01T12:17:43.859Z,98963.75
2023-03-01T12:20:22.508Z,98962.53
2023-03-01T12:23:20.693Z,98968.78
2023-03-01T12:25:57.512Z,98966.56
2023-03-01T12:28:42.553Z,98953.78
2023-03-01T12:31:34.777Z,98951.16
2023-03-01T12:34:13.304Z,98946.59
2023-03-01T12:37:02.672Z,98941.25
2023-03-01T12:39:45.613Z,98935.56
2023-03-01T12:42:23.748Z,98934.59
2023-03-01T12:45:09.569Z,98928.09
2023-03-01T12:47:59.757Z,98935.19
2023-03-01T12:50:38.609Z,98924.91
2023-03-01T12:53:06.372Z,98914.16
2023-03-01T12:55:37.997Z,98906.75
2023-03-01T12:58:22.014Z,98896.44
2023-03-01T13:01:02.720Z,98901.19
2023-03-01T13:03:38.520Z,98900.94
2023-03-01T13:06:13.213Z,98884.31
2023-03-01T13:08:46.180Z,98884.41
2023-03-01T13:11:19.875Z,98889.78
2023-03-01T13:13:49.788Z,98897.75
2023-03-01T13:16:45.984Z,98887.50
2023-03-01T13:19:17.387Z,98895.00
2023-03-01T13:21:46.132Z,98895.53
2023-03-01T13:24:30.359Z,98886.25
2023-03-01T13:27:25.827Z,98888.50
2023-03-01T13:29:54.932Z,98885.28
2023-03-01T13:32:34.599Z,98882.56
2023-03-01T13:35:45.292Z,98881.00
2023-03-01T13:38:46.924Z,98879.03
2023-03-01T13:41:16.314Z,98889.53
2023-03-01T13:43:45.343Z,98892.97
2023-03-01T13:46:18.879Z,98878.72
2023-03-01T13:48:52.607Z,98879.31
2023-03-01T13:51:25.929Z,98874.53
2023-03-01T13:53:57.172Z,98879.81
2023-03-01T13:56:29.300Z,98877.41
2023-03-01T13:59:01.934Z,98878.75
2023-03-01T14:01:31.721Z,98878.47
2023-03-01T14:04:02.529Z,98871.44
2023-03-01T14:06:32.872Z,98875.25
2023-03-01T14:09:07.140Z,98872.94
2023-03-01T14:11:58.670Z,98870.66
2023-03-01T14:14:39.993Z,98874.38
2023-03-01T14:17:43.261Z,98860.56
2023-03-01T14:20:19.048Z,98862.84
2023-03-01T14:22:48.262Z,98865.31
2023-03-01T14:25:24.849Z,98868.88
2023-03-01T14:28:06.099Z,98862.53
2023-03-01T14:30:38.638Z,98872.53
2023-03-01T14:33:19.607Z,98878.56
2023-03-01T14:35:57.516Z,98872.94
2023-03-01T14:38:31.391Z,98886.91
2023-03-01T14:41:06.739Z,98892.31
2023-03-01T14:43:39.716Z,98895.47
2023-03-01T14:46:07.703Z,98894.09
2023-03-01T14:48:35.885Z,98894.34
2023-03-01T14:51:07.638Z,98897.94
2023-03-01T14:53:45.874Z,98902.09
2023-03-01T14:56:19.798Z,98901.72
2023-03-01T14:58:49.211Z,98898.06
2023-03-01T15:01:19.194Z,98902.38
2023-03-01T15:03:49.144Z,98900.31
2023-03-01T15:06:22.087Z,98905.63
2023-03-01T15:08:52.929Z,98899.16
2023-03-01T15:11:25.628Z,98896.97
2023-03-01T15:13:55.098Z,98894.75
2023-03-01T15:16:26.614Z,98894.69
2023-03-01T15:18:57.205Z,98895.56
2023-03-01T15:21:29.917Z,98892.03
2023-03-01T15:24:03.536Z,98897.31
2023-03-01T15:26:34.070Z,98890.66
2023-03-01T15:29:05.240Z,98894.78
2023-03-01T15:31:36.854Z,98892.03
2023-03-01T15:34:13.566Z,98891.50
2023-03-01T15:36:46.341Z,98893.22
2023-03-01T15:39:38.479Z,98889.19
2023-03-01T15:42:08.695Z,98882.78
2023-03-01T15:44:43.666Z,98878.94
2023-03-01T15:47:32.023Z,98874.72
2023-03-01T15:50:02.512Z,98876.59
2023-03-01T15:52:40.814Z,98882.81
2023-03-01T15:55:19.122Z,98888.47
2023-03-01T15:57:47.706Z,98877.59
2023-03-01T16:00:20.041Z,98877.88
2023-03-01T16:02:51.962Z,98878.47
2023-03-01T16:05:24.922Z,98869.63
2023-03-01T16:07:57.532Z,98863.94
2023-03-01T16:10:27.990Z,98855.97
2023-03-01T16:12:58.294Z,98852.41
2023-03-01T16:15:32.640Z,98846.47
2023-03-01T16:18:02.838Z,98853.84
2023-03-01T16:20:33.792Z,98854.16
2023-03-01T16:23:04.620Z,98853.78
2023-03-01T16:25:36.397Z,98855.53
2023-03-01T16:28:10.480Z,98860.91
2023-03-01T16:30:40.821Z,98859.81
2023-03-01T16:33:25.236Z,98863.94
2023-03-01T16:36:01.479Z,98861.81
2023-03-01T16:38:34.198Z,98863.69
2023-03-01T16:41:04.155Z,98867.94
2023-03-01T16:43:34.429Z,98859.78
2023-03-01T16:46:05.387Z,98864.31
2023-03-01T16:48:35.236Z,98872.78
2023-03-01T16:51:04.985Z,98866.34
2023-03-01T16:53:37.045Z,98874.75
2023-03-01T16:56:08.645Z,98875.59
2023-03-01T16:58:37.179Z,98884.91
2023-03-01T17:01:09.573Z,98883.88
2023-03-01T17:03:37.550Z,98887.78
2023-03-01T17:06:06.724Z,98888.63
2023-03-01T17:08:36.435Z,98902.34
2023-03-01T17:11:06.225Z,98899.31
2023-03-01T17:13:35.290Z,98904.03
2023-03-01T17:16:07.211Z,98904.09
2023-03-01T17:18:35.820Z,98905.13
2023-03-01T17:21:05.573Z,98917.66
2023-03-01T17:23:37.409Z,98911.44
2023-03-01T17:26:08.649Z,98912.84
2023-03-01T17:28:38.772Z,98916.59
2023-03-01T17:31:08.465Z,98923.28
2023-03-01T17:33:36.879Z,98932.09
2023-03-01T17:36:05.236Z,98919.09
2023-03-01T17:38:33.189Z,98926.22
2023-03-01T17:41:02.646Z,98928.72
2023-03-01T17:43:32.245Z,98931.63
2023-03-01T17:46:03.245Z,98927.72
2023-03-01T17:48:31.572Z,98931.66
2023-03-01T17:50:59.465Z,98933.41
2023-03-01T17:53:27.606Z,98936.94
2023-03-01T17:56:03.870Z,98939.31
2023-03-01T17:58:32.271Z,98938.94
2023-03-01T18:01:10.354Z,98939.88
2023-03-01T18:03:40.240Z,98928.75
2023-03-01T18:06:14.704Z,98930.63
2023-03-01T18:08:45.382Z,98929.75
2023-03-01T18:11:17.039Z,98927.84
2023-03-01T18:13:45.538Z,98926.03
2023-03-01T18:16:15.028Z,98929.53
2023-03-01T18:18:45.455Z,98936.63
2023-03-01T18:21:15.800Z,98933.25
2023-03-01T18:23:43.822Z,98928.34
2023-03-01T18:26:13.089Z,98941.03
2023-03-01T18:28:42.564Z,98936.47
2023-03-01T18:31:11.825Z,98930.41
2023-03-01T18:33:40.281Z,98933.53
2023-03-01T18:36:19.155Z,98927.03
2023-03-01T18:38:47.940Z,98940.47
2023-03-01T18:41:15.850Z,98941.13
2023-03-01T18:43:47.347Z,98942.44
2023-03-01T18:46:15.354Z,98935.63
2023-03-01T18:48:45.569Z,98939.09
2023-03-01T18:51:15.695Z,98935.22
2023-03-01T18:53:43.646Z,98932.03
2023-03-01T18:56:12.039Z,98929.34
2023-03-01T18:58:43.600Z,98923.66
2023-03-01T19:01:16.946Z,98923.50
2023-03-01T19:03:45.243Z,98918.81
2023-03-01T19:06:13.665Z,98926.75
2023-03-01T19:08:43.150Z,98918.41
2023-03-01T19:11:12.555Z,98918.56
2023-03-01T19:13:41.494Z,98919.66
2023-03-01T19:16:12.292Z,98917.16
2023-03-01T19:18:43.880Z,98916.44
2023-03-01T19:21:12.696Z,98908.78
2023-03-01T19:23:40.592Z,98914.78
2023-03-01T19:26:11.235Z,98910.88
2023-03-01T19:28:39.785Z,98916.41
2023-03-01T19:31:12.680Z,98913.13
2023-03-01T19:33:42.440Z,98908.31
2023-03-01T19:36:14.133Z,98906.31
2023-03-01T19:38:43.270Z,98907.53
2023-03-01T19:41:18.595Z,98903.94
2023-03-01T19:43:47.283Z,98911.59
2023-03-01T19:46:16.265Z,98913.06
2023-03-01T19:48:45.694Z,98912.41
2023-03-01T19:51:13.951Z,98914.38
2023-03-01T19:53:42.280Z,98909.06
2023-03-01T19:56:10.533Z,98898.84
2023-03-01T19:58:39.976Z,98907.53
2023-03-01T20:01:15.972Z,98906.47
2023-03-01T20:03:45.770Z,98909.75
2023-03-01T20:06:15.507Z,98911.41
2023-03-01T20:08:44.574Z,98914.53
2023-03-01T20:11:14.372Z,98914.91
2023-03-01T20:13:42.519Z,98912.31
2023-03-01T20:16:10.556Z,98919.31
2023-03-01T20:18:38.617Z,98911.66
2023-03-01T20:21:21.503Z,98913.81
2023-03-01T20:23:51.483Z,98923.00
2023-03-01T20:26:20.407Z,98917.53
2023-03-01T20:28:49.468Z,98918.53
2023-03-01T20:31:19.856Z,98916.03
2023-03-01T20:33:47.910Z,98911.97
2023-03-01T20:36:19.354Z,98914.53
2023-03-01T20:38:47.169Z,98910.56
2023-03-01T20:41:15.393Z,98913.25
2023-03-01T20:43:43.710Z,98906.28
2023-03-01T20:46:13.419Z,98905.09
2023-03-01T20:48:42.926Z,98908.25
2023-03-01T20:51:12.313Z,98906.81
2023-03-01T20:53:42.042Z,98905.41
2023-03-01T20:56:12.253Z,98902.97
2023-03-01T20:58:40.798Z,98901.56
2023-03-01T21:01:10.276Z,98900.81
2023-03-01T21:03:38.444Z,98899.31
2023-03-01T21:06:07.514Z,98902.78
2023-03-01T21:08:36.139Z,98913.09
2023-03-01T21:11:08.423Z,98902.50
2023-03-01T21:13:37.010Z,98901.13
2023-03-01T21:16:10.077Z,98902.44
2023-03-01T21:18:37.874Z,98901.44
2023-03-01T21:21:07.839Z,98898.84
2023-03-01T21:23:38.190Z,98896.53
2023-03-01T21:26:09.211Z,98892.41
2023-03-01T21:28:37.950Z,98895.56
2023-03-01T21:31:07.394Z,98890.63
2023-03-01T21:33:36.192Z,98898.91
2023-03-01T21:36:08.380Z,98893.88
2023-03-01T21:38:38.847Z,98889.06
2023-03-01T21:41:10.065Z,98889.69
2023-03-01T21:43:39.673Z,98882.44
2023-03-01T21:46:10.537Z,98884.97
2023-03-01T21:48:40.012Z,98876.84
2023-03-01T21:51:09.454Z,98884.16
2023-03-01T21:53:38.037Z,98874.53
2023-03-01T21:56:09.515Z,98871.16
2023-03-01T21:58:37.505Z,98879.91
2023-03-01T22:01:09.314Z,98871.53
2023-03-01T22:03:45.435Z,98868.41
2023-03-01T22:06:19.200Z,98877.41
2023-03-01T22:08:48.631Z,98863.34
2023-03-01T22:11:19.071Z,98874.59
2023-03-01T22:13:49.367Z,98862.19
2023-03-01T22:16:17.897Z,98879.84
2023-03-01T22:18:46.102Z,98873.38
2023-03-01T22:21:14.082Z,98877.09
2023-03-01T22:23:42.499Z,98876.28
2023-03-01T22:26:21.362Z,98878.44
2023-03-01T22:28:50.852Z,98867.16
2023-03-01T22:31:18.849Z,98872.25
2023-03-01T22:33:46.830Z,98876.13
2023-03-01T22:36:14.610Z,98880.38
2023-03-01T22:38:42.759Z,98878.03
2023-03-01T22:41:10.727Z,98881.47
2023-03-01T22:43:38.785Z,98871.41
2023-03-01T22:46:17.565Z,98866.78
2023-03-01T22:48:46.375Z,98871.66
2023-03-01T22:51:17.672Z,98864.56
2023-03-01T22:53:45.761Z,98870.81
2023-03-01T22:56:18.157Z,98874.31
2023-03-01T22:58:46.390Z,98871.59
2023-03-01T23:01:20.434Z,98873.31
2023-03-01T23:03:48.852Z,98861.03
2023-03-01T23:06:18.865Z,98870.78
2023-03-01T23:08:50.794Z,98866.38
2023-03-01T23:11:20.186Z,98866.78
2023-03-01T23:13:48.704Z,98864.00
2023-03-01T23:16:18.335Z,98863.41
2023-03-01T23:18:48.431Z,98864.81
2023-03-01T23:21:18.851Z,98859.16
2023-03-01T23:23:47.541Z,98853.69
2023-03-01T23:26:16.246Z,98859.94
2023-03-01T23:28:44.256Z,98864.91
2023-03-01T23:31:14.735Z,98857.31
2023-03-01T23:33:45.259Z,98855.44
2023-03-01T23:36:18.057Z,98852.97
2023-03-01T23:38:46.086Z,98857.91
2023-03-01T23:41:14.651Z,98849.19
2023-03-01T23:43:45.327Z,98857.31
2023-03-01T23:46:14.500Z,98846.88
2023-03-01T23:48:43.878Z,98848.56
2023-03-01T23:51:12.735Z,98853.53
2023-03-01T23:53:54.831Z,98849.81
2023-03-01T23:56:26.098Z,98855.72
2023-03-01T23:58:54.957Z,98854.59
